createdAt,value
2019-02-17T00:00:50.857Z,4.91
2019-02-17T00:01:50.906Z,4.83
2019-02-17T00:02:50.833Z,4.83
2019-02-17T00:03:50.831Z,4.89
2019-02-17T00:04:50.813Z,4.82
2019-02-17T00:05:50.811Z,4.71
2019-02-17T00:06:50.810Z,4.88
2019-02-17T00:07:50.807Z,4.71
2019-02-17T00:08:50.798Z,4.79
2019-02-17T00:09:50.760Z,4.71
2019-02-17T00:10:50.750Z,4.66
2019-02-17T00:11:50.767Z,4.69
2019-02-17T00:12:50.741Z,4.74
2019-02-17T00:13:50.718Z,4.66
2019-02-17T00:14:50.709Z,4.67
2019-02-17T00:15:50.694Z,4.69
2019-02-17T00:16:50.712Z,4.69
2019-02-17T00:17:50.721Z,4.66
2019-02-17T00:18:50.685Z,4.57
2019-02-17T00:19:50.658Z,4.60
2019-02-17T00:20:50.635Z,4.56
2019-02-17T00:21:50.628Z,4.63
2019-02-17T00:22:50.618Z,4.63
2019-02-17T00:23:50.629Z,4.63
2019-02-17T00:24:50.620Z,4.63
2019-02-17T00:25:50.586Z,4.59
2019-02-17T00:26:50.586Z,4.54
2019-02-17T00:27:50.608Z,4.51
2019-02-17T00:28:59.153Z,4.56
2019-02-17T00:29:51.570Z,4.49
2019-02-17T00:30:50.555Z,4.54
2019-02-17T00:31:50.520Z,4.54
2019-02-17T00:32:50.556Z,4.46
2019-02-17T00:33:50.496Z,4.42
2019-02-17T00:34:50.486Z,4.45
2019-02-17T00:35:50.547Z,4.38
2019-02-17T00:36:50.466Z,4.43
2019-02-17T00:37:50.456Z,4.42
2019-02-17T00:38:50.469Z,4.42
2019-02-17T00:39:50.426Z,4.41
2019-02-17T00:40:50.452Z,4.35
2019-02-17T00:41:50.455Z,4.34
2019-02-17T00:42:50.426Z,4.46
2019-02-17T00:43:50.389Z,4.45
2019-02-17T00:44:50.385Z,4.38
2019-02-17T00:45:50.376Z,4.41
2019-02-17T00:46:50.355Z,4.49
2019-02-17T00:47:50.424Z,4.43
2019-02-17T00:48:50.357Z,4.48
2019-02-17T00:49:50.332Z,4.49
2019-02-17T00:50:50.341Z,4.43
2019-02-17T00:51:50.305Z,4.49
2019-02-17T00:52:50.326Z,4.41
2019-02-17T00:53:50.303Z,4.39
2019-02-17T00:54:50.292Z,4.35
2019-02-17T00:55:50.264Z,4.41
2019-02-17T00:56:50.254Z,4.21
2019-02-17T00:57:50.242Z,4.27
2019-02-17T00:58:50.255Z,4.21
2019-02-17T00:59:50.248Z,4.30
2019-02-17T01:00:50.208Z,4.27
2019-02-17T01:01:50.203Z,4.20
2019-02-17T01:02:50.187Z,4.24
2019-02-17T01:03:50.206Z,4.26
2019-02-17T01:04:50.169Z,4.21
2019-02-17T01:05:50.170Z,4.26
2019-02-17T01:06:50.164Z,4.27
2019-02-17T01:07:50.135Z,4.21
2019-02-17T01:08:50.149Z,4.12
2019-02-17T01:09:50.112Z,4.09
2019-02-17T01:10:50.104Z,4.17
2019-02-17T01:11:50.154Z,4.08
2019-02-17T01:12:50.086Z,4.05
2019-02-17T01:13:50.097Z,4.06
2019-02-17T01:14:50.058Z,4.03
2019-02-17T01:15:50.053Z,4.05
2019-02-17T01:16:50.103Z,3.96
2019-02-17T01:17:50.047Z,4.02
2019-02-17T01:18:50.034Z,3.92
2019-02-17T01:19:50.061Z,3.96
2019-02-17T01:20:50.017Z,3.96
2019-02-17T01:21:50.010Z,3.90
2019-02-17T01:22:50.031Z,3.85
2019-02-17T01:23:50.016Z,3.76
2019-02-17T01:24:49.983Z,3.87
2019-02-17T01:25:49.941Z,3.84
2019-02-17T01:26:49.936Z,3.87
2019-02-17T01:27:49.942Z,3.91
2019-02-17T01:28:49.998Z,3.94
2019-02-17T01:29:49.950Z,3.87
2019-02-17T01:30:49.913Z,3.90
2019-02-17T01:31:49.882Z,3.88
2019-02-17T01:32:49.863Z,3.96
2019-02-17T01:33:49.851Z,3.98
2019-02-17T01:34:49.882Z,3.96
2019-02-17T01:35:49.830Z,3.92
2019-02-17T01:36:49.821Z,3.96
2019-02-17T01:37:49.804Z,3.99
2019-02-17T01:38:49.799Z,3.98
2019-02-17T01:39:49.817Z,3.96
2019-02-17T01:40:49.792Z,3.94
2019-02-17T01:41:49.764Z,4.03
2019-02-17T01:42:49.758Z,3.94
2019-02-17T01:43:49.743Z,3.92
2019-02-17T01:44:49.761Z,3.94
2019-02-17T01:45:49.781Z,3.94
2019-02-17T01:46:49.731Z,3.94
2019-02-17T01:47:49.703Z,3.84
2019-02-17T01:48:49.694Z,3.94
2019-02-17T01:49:49.708Z,3.84
2019-02-17T01:50:49.667Z,3.84
2019-02-17T01:51:49.660Z,3.73
2019-02-17T01:52:49.662Z,3.78
2019-02-17T01:53:49.636Z,3.74
2019-02-17T01:54:49.648Z,3.73
2019-02-17T01:55:49.614Z,3.78
2019-02-17T01:56:49.609Z,3.67
2019-02-17T01:57:49.594Z,3.64
2019-02-17T01:58:49.615Z,3.67
2019-02-17T01:59:49.594Z,3.64
2019-02-17T02:00:49.556Z,3.56
2019-02-17T02:01:49.549Z,3.59
2019-02-17T02:02:49.541Z,3.48
2019-02-17T02:03:49.525Z,3.55
2019-02-17T02:04:49.594Z,3.54
2019-02-17T02:05:49.503Z,3.52
2019-02-17T02:06:49.491Z,3.37
2019-02-17T02:07:49.491Z,3.45
2019-02-17T02:08:49.477Z,3.48
2019-02-17T02:09:49.522Z,3.42
2019-02-17T02:10:49.446Z,3.54
2019-02-17T02:11:49.445Z,3.46
2019-02-17T02:12:49.427Z,3.54
2019-02-17T02:13:49.423Z,3.46
2019-02-17T02:14:49.435Z,3.54
2019-02-17T02:15:49.410Z,3.62
2019-02-17T02:16:49.381Z,3.52
2019-02-17T02:17:49.393Z,3.52
2019-02-17T02:18:49.396Z,3.59
2019-02-17T02:19:49.393Z,3.54
2019-02-17T02:20:49.348Z,3.45
2019-02-17T02:21:49.344Z,3.60
2019-02-17T02:22:49.323Z,3.56
2019-02-17T02:23:49.360Z,3.51
2019-02-17T02:24:49.352Z,3.56
2019-02-17T02:25:49.315Z,3.52
2019-02-17T02:26:49.303Z,3.52
2019-02-17T02:27:49.275Z,3.62
2019-02-17T02:28:49.253Z,3.51
2019-02-17T02:29:49.246Z,3.56
2019-02-17T02:30:49.287Z,3.54
2019-02-17T02:31:49.239Z,3.52
2019-02-17T02:32:49.213Z,3.54
2019-02-17T02:33:49.221Z,3.36
2019-02-17T02:34:49.191Z,3.48
2019-02-17T02:35:49.204Z,3.45
2019-02-17T02:36:49.167Z,3.56
2019-02-17T02:37:49.164Z,3.49
2019-02-17T02:38:49.178Z,3.52
2019-02-17T02:39:49.135Z,3.63
2019-02-17T02:40:49.146Z,3.56
2019-02-17T02:41:49.119Z,3.69
2019-02-17T02:42:49.106Z,3.64
2019-02-17T02:43:49.091Z,3.69
2019-02-17T02:44:49.096Z,3.66
2019-02-17T02:45:49.095Z,3.66
2019-02-17T02:46:49.063Z,3.67
2019-02-17T02:47:49.048Z,3.69
2019-02-17T02:48:49.037Z,3.62
2019-02-17T02:49:49.033Z,3.66
2019-02-17T02:50:49.060Z,3.67
2019-02-17T02:51:49.015Z,3.64
2019-02-17T02:52:49.005Z,3.67
2019-02-17T02:53:48.988Z,3.69
2019-02-17T02:54:48.980Z,3.69
2019-02-17T02:55:49.010Z,3.72
2019-02-17T02:56:48.976Z,3.62
2019-02-17T02:57:48.940Z,3.52
2019-02-17T02:58:48.933Z,3.54
2019-02-17T02:59:52.442Z,3.54
2019-02-17T03:00:48.935Z,3.60
2019-02-17T03:01:48.927Z,3.56
2019-02-17T03:02:48.930Z,3.56
2019-02-17T03:03:48.945Z,3.60
2019-02-17T03:04:48.914Z,3.54
2019-02-17T03:05:48.870Z,3.52
2019-02-17T03:06:48.893Z,3.56
2019-02-17T03:07:48.918Z,3.54
2019-02-17T03:08:48.842Z,3.45
2019-02-17T03:09:48.816Z,3.49
2019-02-17T03:10:48.803Z,3.56
2019-02-17T03:11:48.842Z,3.41
2019-02-17T03:12:48.805Z,3.42
2019-02-17T03:13:48.813Z,3.51
2019-02-17T03:14:48.776Z,3.49
2019-02-17T03:15:48.749Z,3.42
2019-02-17T03:16:48.758Z,3.46
2019-02-17T03:17:48.747Z,3.49
2019-02-17T03:18:48.714Z,3.48
2019-02-17T03:19:48.724Z,3.46
2019-02-17T03:20:48.690Z,3.37
2019-02-17T03:21:48.707Z,3.33
2019-02-17T03:22:48.666Z,3.44
2019-02-17T03:23:48.659Z,3.42
2019-02-17T03:24:48.648Z,3.36
2019-02-17T03:25:48.655Z,3.46
2019-02-17T03:26:48.668Z,3.41
2019-02-17T03:27:48.616Z,3.44
2019-02-17T03:28:48.603Z,3.42
2019-02-17T03:29:48.591Z,3.36
2019-02-17T03:30:56.869Z,3.35
2019-02-17T03:31:48.583Z,3.35
2019-02-17T03:32:48.583Z,3.41
2019-02-17T03:33:48.580Z,3.35
2019-02-17T03:34:48.541Z,3.46
2019-02-17T03:35:48.557Z,3.35
2019-02-17T03:36:48.518Z,3.30
2019-02-17T03:37:48.543Z,3.30
2019-02-17T03:38:48.510Z,3.20
2019-02-17T03:39:48.482Z,3.30
2019-02-17T03:40:48.473Z,3.36
2019-02-17T03:41:48.461Z,3.25
2019-02-17T03:42:48.458Z,3.33
2019-02-17T03:43:48.470Z,3.27
2019-02-17T03:44:48.436Z,3.29
2019-02-17T03:45:48.428Z,3.29
2019-02-17T03:46:48.415Z,3.20
2019-02-17T03:47:48.422Z,3.14
2019-02-17T03:48:48.385Z,3.18
2019-02-17T03:49:48.406Z,3.22
2019-02-17T03:50:48.365Z,3.22
2019-02-17T03:51:48.351Z,3.23
2019-02-17T03:52:48.340Z,3.18
2019-02-17T03:53:48.333Z,3.14
2019-02-17T03:54:48.324Z,3.20
2019-02-17T03:55:48.346Z,3.25
2019-02-17T03:56:48.301Z,3.26
2019-02-17T03:57:48.321Z,3.25
2019-02-17T03:58:48.287Z,3.22
2019-02-17T03:59:48.271Z,3.20
2019-02-17T04:00:48.260Z,3.17
2019-02-17T04:01:48.252Z,3.20
2019-02-17T04:02:48.266Z,3.25
2019-02-17T04:03:48.224Z,3.23
2019-02-17T04:04:48.215Z,3.14
2019-02-17T04:05:48.204Z,3.08
2019-02-17T04:06:48.197Z,3.14
2019-02-17T04:07:48.188Z,3.17
2019-02-17T04:08:48.395Z,3.22
2019-02-17T04:09:48.160Z,3.11
2019-02-17T04:10:48.153Z,3.12
2019-02-17T04:11:48.137Z,3.09
2019-02-17T04:12:48.129Z,3.12
2019-02-17T04:13:48.148Z,3.22
2019-02-17T04:14:48.102Z,3.22
2019-02-17T04:15:48.092Z,3.11
2019-02-17T04:16:48.083Z,3.11
2019-02-17T04:17:48.073Z,3.15
2019-02-17T04:18:48.091Z,3.08
2019-02-17T04:19:48.112Z,3.00
2019-02-17T04:20:48.040Z,2.97
2019-02-17T04:21:48.046Z,3.07
2019-02-17T04:22:48.029Z,2.97
2019-02-17T04:23:48.038Z,2.94
2019-02-17T04:24:48.000Z,3.02
2019-02-17T04:25:47.990Z,2.96
2019-02-17T04:26:47.983Z,2.99
2019-02-17T04:27:47.999Z,2.99
2019-02-17T04:28:47.970Z,2.94
2019-02-17T04:29:47.989Z,2.93
2019-02-17T04:30:47.936Z,2.94
2019-02-17T04:31:47.979Z,2.97
2019-02-17T04:32:47.913Z,2.99
2019-02-17T04:33:47.920Z,2.93
2019-02-17T04:34:47.915Z,3.00
2019-02-17T04:35:47.884Z,2.93
2019-02-17T04:36:47.862Z,2.87
2019-02-17T04:37:47.881Z,2.93
2019-02-17T04:38:47.862Z,2.86
2019-02-17T04:39:47.882Z,2.87
2019-02-17T04:40:47.827Z,2.81
2019-02-17T04:41:47.843Z,2.81
2019-02-17T04:42:47.805Z,2.84
2019-02-17T04:43:47.831Z,2.86
2019-02-17T04:44:47.821Z,2.81
2019-02-17T04:45:47.766Z,2.86
2019-02-17T04:46:47.815Z,2.78
2019-02-17T04:47:47.783Z,2.82
2019-02-17T04:48:47.726Z,2.82
2019-02-17T04:49:47.721Z,2.76
2019-02-17T04:50:47.719Z,2.79
2019-02-17T04:51:47.870Z,2.78
2019-02-17T04:52:47.693Z,2.78
2019-02-17T04:53:47.680Z,2.81
2019-02-17T04:54:47.705Z,2.78
2019-02-17T04:55:47.661Z,2.89
2019-02-17T04:56:47.660Z,2.81
2019-02-17T04:57:47.633Z,2.93
2019-02-17T04:58:47.617Z,2.84
2019-02-17T04:59:47.645Z,2.78
2019-02-17T05:00:49.907Z,2.84
2019-02-17T05:01:47.588Z,2.89
2019-02-17T05:02:47.590Z,2.93
2019-02-17T05:03:47.564Z,2.90
2019-02-17T05:04:47.557Z,2.93
2019-02-17T05:05:47.578Z,2.93
2019-02-17T05:06:47.534Z,2.91
2019-02-17T05:07:47.529Z,2.94
2019-02-17T05:08:47.541Z,2.93
2019-02-17T05:09:47.503Z,2.89
2019-02-17T05:10:47.521Z,2.97
2019-02-17T05:11:47.510Z,3.00
2019-02-17T05:12:47.478Z,2.97
2019-02-17T05:13:47.469Z,2.87
2019-02-17T05:14:47.445Z,2.82
2019-02-17T05:15:47.641Z,2.89
2019-02-17T05:16:47.423Z,2.89
2019-02-17T05:17:47.413Z,2.86
2019-02-17T05:18:47.407Z,2.84
2019-02-17T05:19:47.392Z,2.79
2019-02-17T05:20:47.377Z,2.86
2019-02-17T05:21:47.403Z,2.81
2019-02-17T05:22:47.389Z,2.81
2019-02-17T05:23:47.349Z,2.79
2019-02-17T05:24:47.348Z,2.82
2019-02-17T05:25:47.321Z,2.86
2019-02-17T05:26:47.344Z,2.79
2019-02-17T05:27:47.315Z,2.86
2019-02-17T05:28:47.299Z,2.78
2019-02-17T05:29:47.284Z,2.78
2019-02-17T05:30:52.781Z,2.71
2019-02-17T05:31:48.292Z,2.79
2019-02-17T05:32:47.257Z,2.82
2019-02-17T05:33:47.246Z,2.81
2019-02-17T05:34:47.228Z,2.87
2019-02-17T05:35:47.222Z,2.81
2019-02-17T05:36:47.228Z,2.76
2019-02-17T05:37:47.187Z,2.72
2019-02-17T05:38:47.189Z,2.78
2019-02-17T05:39:47.191Z,2.68
2019-02-17T05:40:47.203Z,2.65
2019-02-17T05:41:47.172Z,2.71
2019-02-17T05:42:47.209Z,2.63
2019-02-17T05:43:47.122Z,2.61
2019-02-17T05:44:47.116Z,2.61
2019-02-17T05:45:47.119Z,2.55
2019-02-17T05:46:47.093Z,2.57
2019-02-17T05:47:47.083Z,2.60
2019-02-17T05:48:47.103Z,2.51
2019-02-17T05:49:47.066Z,2.57
2019-02-17T05:50:47.118Z,2.40
2019-02-17T05:51:47.045Z,2.43
2019-02-17T05:52:47.047Z,2.45
2019-02-17T05:53:47.031Z,2.50
2019-02-17T05:54:47.008Z,2.43
2019-02-17T05:55:46.999Z,2.39
2019-02-17T05:56:46.990Z,2.39
2019-02-17T05:57:47.019Z,2.40
2019-02-17T05:58:46.979Z,2.47
2019-02-17T05:59:46.953Z,2.54
2019-02-17T06:00:46.997Z,2.50
2019-02-17T06:01:46.937Z,2.51
2019-02-17T06:02:46.944Z,2.48
2019-02-17T06:03:46.912Z,2.51
2019-02-17T06:04:46.894Z,2.53
2019-02-17T06:05:46.895Z,2.60
2019-02-17T06:06:46.874Z,2.53
2019-02-17T06:07:46.893Z,2.60
2019-02-17T06:08:46.854Z,2.53
2019-02-17T06:09:46.858Z,2.48
2019-02-17T06:10:46.839Z,2.54
2019-02-17T06:11:46.856Z,2.47
2019-02-17T06:12:46.811Z,2.51
2019-02-17T06:13:46.819Z,2.48
2019-02-17T06:14:46.787Z,2.53
2019-02-17T06:15:46.785Z,2.54
2019-02-17T06:16:46.784Z,2.54
2019-02-17T06:17:46.762Z,2.39
2019-02-17T06:18:46.773Z,2.51
2019-02-17T06:19:46.754Z,2.48
2019-02-17T06:20:46.733Z,2.47
2019-02-17T06:21:46.714Z,2.54
2019-02-17T06:22:46.708Z,2.53
2019-02-17T06:23:46.747Z,2.48
2019-02-17T06:24:46.689Z,2.50
2019-02-17T06:25:46.665Z,2.50
2019-02-17T06:26:46.657Z,2.47
2019-02-17T06:27:46.648Z,2.47
2019-02-17T06:28:46.657Z,2.53
2019-02-17T06:29:49.026Z,2.53
2019-02-17T06:30:46.618Z,2.45
2019-02-17T06:31:46.600Z,2.43
2019-02-17T06:32:46.591Z,2.43
2019-02-17T06:33:46.612Z,2.43
2019-02-17T06:34:46.565Z,2.43
2019-02-17T06:35:46.558Z,2.47
2019-02-17T06:36:46.564Z,2.53
2019-02-17T06:37:46.539Z,2.40
2019-02-17T06:38:46.527Z,2.43
2019-02-17T06:39:46.534Z,2.57
2019-02-17T06:40:46.540Z,2.40
2019-02-17T06:41:46.496Z,2.42
2019-02-17T06:42:46.481Z,2.40
2019-02-17T06:43:46.511Z,2.47
2019-02-17T06:44:46.455Z,2.43
2019-02-17T06:45:46.445Z,2.53
2019-02-17T06:46:46.437Z,2.43
2019-02-17T06:47:46.434Z,2.54
2019-02-17T06:48:46.435Z,2.54
2019-02-17T06:49:46.686Z,2.51
2019-02-17T06:50:46.395Z,2.43
2019-02-17T06:51:46.382Z,2.60
2019-02-17T06:52:46.370Z,2.53
2019-02-17T06:53:46.354Z,2.54
2019-02-17T06:54:46.372Z,2.51
2019-02-17T06:55:46.548Z,2.45
2019-02-17T06:56:46.331Z,2.63
2019-02-17T06:57:46.310Z,2.50
2019-02-17T06:58:46.305Z,2.50
2019-02-17T06:59:46.288Z,2.47
2019-02-17T07:00:46.283Z,2.55
2019-02-17T07:01:46.291Z,2.57
2019-02-17T07:02:46.278Z,2.53
2019-02-17T07:03:46.271Z,2.53
2019-02-17T07:04:46.278Z,2.43
2019-02-17T07:05:46.222Z,2.53
2019-02-17T07:06:46.211Z,2.51
2019-02-17T07:07:46.231Z,2.47
2019-02-17T07:08:46.210Z,2.54
2019-02-17T07:09:46.176Z,2.58
2019-02-17T07:10:46.188Z,2.51
2019-02-17T07:11:46.176Z,2.58
2019-02-17T07:12:46.156Z,2.69
2019-02-17T07:13:46.153Z,2.68
2019-02-17T07:14:46.126Z,2.63
2019-02-17T07:15:46.145Z,2.66
2019-02-17T07:16:46.099Z,2.69
2019-02-17T07:17:46.096Z,2.72
2019-02-17T07:18:46.088Z,2.69
2019-02-17T07:19:46.092Z,2.81
2019-02-17T07:20:46.054Z,2.71
2019-02-17T07:21:46.073Z,2.76
2019-02-17T07:22:46.037Z,2.75
2019-02-17T07:23:46.039Z,2.81
2019-02-17T07:24:46.115Z,2.93
2019-02-17T07:25:46.041Z,2.91
2019-02-17T07:26:46.003Z,2.96
2019-02-17T07:27:45.984Z,2.79
2019-02-17T07:28:46.003Z,2.90
2019-02-17T07:29:45.960Z,2.89
2019-02-17T07:30:45.985Z,2.96
2019-02-17T07:31:45.937Z,2.84
2019-02-17T07:32:45.943Z,2.82
2019-02-17T07:33:45.923Z,2.87
2019-02-17T07:34:45.907Z,2.89
2019-02-17T07:35:45.911Z,2.91
2019-02-17T07:36:45.912Z,2.97
2019-02-17T07:37:45.921Z,2.96
2019-02-17T07:38:45.900Z,3.02
2019-02-17T07:39:45.870Z,2.99
2019-02-17T07:40:45.874Z,3.08
2019-02-17T07:41:45.857Z,3.12
2019-02-17T07:42:45.835Z,3.05
2019-02-17T07:43:45.813Z,3.18
2019-02-17T07:44:45.810Z,3.04
2019-02-17T07:45:45.784Z,3.12
2019-02-17T07:46:45.835Z,3.09
2019-02-17T07:47:45.787Z,3.18
2019-02-17T07:48:45.781Z,3.12
2019-02-17T07:49:45.740Z,3.22
2019-02-17T07:50:45.728Z,3.23
2019-02-17T07:51:45.760Z,3.18
2019-02-17T07:52:45.718Z,3.27
2019-02-17T07:53:45.724Z,3.27
2019-02-17T07:54:45.729Z,3.32
2019-02-17T07:55:45.676Z,3.36
2019-02-17T07:56:45.703Z,3.37
2019-02-17T07:57:45.653Z,3.41
2019-02-17T07:58:45.646Z,3.51
2019-02-17T07:59:45.700Z,3.42
2019-02-17T08:00:45.627Z,3.41
2019-02-17T08:01:45.763Z,3.51
2019-02-17T08:02:45.601Z,3.52
2019-02-17T08:03:45.587Z,3.49
2019-02-17T08:04:45.605Z,3.46
2019-02-17T08:05:45.596Z,3.49
2019-02-17T08:06:45.585Z,3.55
2019-02-17T08:07:45.563Z,3.52
2019-02-17T08:08:45.564Z,3.52
2019-02-17T08:09:45.561Z,3.52
2019-02-17T08:10:45.517Z,3.63
2019-02-17T08:11:45.548Z,3.59
2019-02-17T08:12:45.522Z,3.64
2019-02-17T08:13:45.543Z,3.69
2019-02-17T08:14:45.477Z,3.72
2019-02-17T08:15:45.488Z,3.74
2019-02-17T08:16:45.478Z,3.84
2019-02-17T08:17:45.478Z,3.74
2019-02-17T08:18:45.444Z,3.85
2019-02-17T08:19:45.427Z,3.84
2019-02-17T08:20:45.405Z,3.92
2019-02-17T08:21:45.399Z,3.98
2019-02-17T08:22:45.408Z,3.99
2019-02-17T08:23:45.384Z,3.99
2019-02-17T08:24:45.440Z,4.06
2019-02-17T08:25:45.348Z,4.08
2019-02-17T08:26:45.343Z,4.09
2019-02-17T08:27:45.326Z,4.16
2019-02-17T08:28:45.413Z,4.20
2019-02-17T08:29:45.315Z,4.23
2019-02-17T08:30:45.298Z,4.26
2019-02-17T08:31:54.845Z,4.20
2019-02-17T08:32:46.308Z,4.31
2019-02-17T08:33:45.284Z,4.41
2019-02-17T08:34:45.254Z,4.39
2019-02-17T08:35:45.312Z,4.36
2019-02-17T08:36:45.235Z,4.49
2019-02-17T08:37:45.251Z,4.51
2019-02-17T08:38:45.252Z,4.57
2019-02-17T08:39:45.260Z,4.59
2019-02-17T08:40:45.217Z,4.59
2019-02-17T08:41:45.227Z,4.61
2019-02-17T08:42:45.188Z,4.67
2019-02-17T08:43:45.301Z,4.69
2019-02-17T08:44:45.168Z,4.74
2019-02-17T08:45:45.168Z,4.88
2019-02-17T08:46:45.299Z,4.82
2019-02-17T08:47:45.141Z,4.89
2019-02-17T08:48:45.104Z,4.88
2019-02-17T08:49:45.090Z,4.97
2019-02-17T08:50:45.082Z,4.91
2019-02-17T08:51:45.095Z,5.00
2019-02-17T08:52:45.103Z,5.06
2019-02-17T08:53:45.068Z,5.14
2019-02-17T08:54:45.039Z,5.14
2019-02-17T08:55:45.029Z,5.19
2019-02-17T08:56:45.040Z,5.16
2019-02-17T08:57:45.007Z,5.25
2019-02-17T08:58:45.288Z,5.21
2019-02-17T08:59:45.005Z,5.21
2019-02-17T09:00:44.972Z,5.27
2019-02-17T09:01:44.986Z,5.32
2019-02-17T09:02:45.002Z,5.32
2019-02-17T09:03:44.961Z,5.34
2019-02-17T09:04:44.947Z,5.33
2019-02-17T09:05:44.918Z,5.40
2019-02-17T09:06:44.912Z,5.43
2019-02-17T09:07:44.891Z,5.43
2019-02-17T09:08:44.908Z,5.48
2019-02-17T09:09:44.873Z,5.57
2019-02-17T09:10:44.883Z,5.59
2019-02-17T09:11:44.850Z,5.54
2019-02-17T09:12:44.840Z,5.55
2019-02-17T09:13:44.835Z,5.61
2019-02-17T09:14:44.850Z,5.66
2019-02-17T09:15:44.804Z,5.65
2019-02-17T09:16:44.803Z,5.73
2019-02-17T09:17:44.789Z,5.72
2019-02-17T09:18:44.799Z,5.79
2019-02-17T09:19:44.788Z,5.79
2019-02-17T09:20:44.753Z,5.79
2019-02-17T09:21:44.760Z,5.88
2019-02-17T09:22:44.741Z,5.85
2019-02-17T09:23:44.727Z,5.88
2019-02-17T09:24:44.738Z,5.91
2019-02-17T09:25:44.727Z,5.91
2019-02-17T09:26:44.686Z,5.95
2019-02-17T09:27:44.688Z,5.97
2019-02-17T09:28:44.664Z,6.03
2019-02-17T09:29:44.698Z,6.08
2019-02-17T09:30:44.649Z,6.02
2019-02-17T09:31:44.639Z,6.08
2019-02-17T09:32:44.684Z,6.16
2019-02-17T09:33:44.617Z,6.12
2019-02-17T09:34:44.637Z,6.19
2019-02-17T09:35:44.589Z,6.12
2019-02-17T09:36:44.582Z,6.11
2019-02-17T09:37:44.594Z,6.25
2019-02-17T09:38:44.562Z,6.25
2019-02-17T09:39:44.592Z,6.27
2019-02-17T09:40:44.542Z,6.32
2019-02-17T09:41:44.531Z,6.42
2019-02-17T09:42:44.518Z,6.43
2019-02-17T09:43:45.698Z,6.38
2019-02-17T09:44:44.521Z,6.47
2019-02-17T09:45:44.487Z,6.43
2019-02-17T09:46:44.487Z,6.49
2019-02-17T09:47:44.459Z,6.53
2019-02-17T09:48:44.473Z,6.43
2019-02-17T09:49:44.439Z,6.53
2019-02-17T09:50:44.459Z,6.53
2019-02-17T09:51:44.419Z,6.61
2019-02-17T09:52:44.412Z,6.70
2019-02-17T09:53:44.395Z,6.70
2019-02-17T09:54:44.392Z,6.78
2019-02-17T09:55:44.407Z,6.81
2019-02-17T09:56:44.369Z,6.73
2019-02-17T09:57:44.356Z,6.74
2019-02-17T09:58:44.346Z,6.88
2019-02-17T09:59:44.340Z,6.85
2019-02-17T10:00:44.356Z,6.89
2019-02-17T10:01:44.314Z,6.93
2019-02-17T10:02:44.306Z,6.96
2019-02-17T10:03:44.291Z,6.97
2019-02-17T10:04:44.299Z,7.00
2019-02-17T10:05:44.280Z,7.03
2019-02-17T10:06:44.260Z,7.03
2019-02-17T10:07:44.258Z,7.03
2019-02-17T10:08:44.276Z,7.13
2019-02-17T10:09:44.232Z,7.16
2019-02-17T10:10:44.240Z,7.16
2019-02-17T10:11:44.217Z,7.21
2019-02-17T10:12:44.193Z,7.25
2019-02-17T10:13:44.182Z,7.36
2019-02-17T10:14:44.185Z,7.40
2019-02-17T10:15:44.192Z,7.43
2019-02-17T10:16:44.151Z,7.46
2019-02-17T10:17:44.146Z,7.52
2019-02-17T10:18:44.164Z,7.49
2019-02-17T10:19:44.134Z,7.50
2019-02-17T10:20:44.104Z,7.55
2019-02-17T10:21:44.121Z,7.66
2019-02-17T10:22:44.089Z,7.62
2019-02-17T10:23:44.115Z,7.78
2019-02-17T10:24:44.090Z,7.81
2019-02-17T10:25:44.054Z,7.77
2019-02-17T10:26:44.078Z,7.91
2019-02-17T10:27:44.081Z,7.81
2019-02-17T10:28:44.032Z,7.86
2019-02-17T10:29:44.005Z,7.83
2019-02-17T10:30:44.064Z,7.95
2019-02-17T10:31:44.009Z,8.10
2019-02-17T10:32:43.969Z,8.17
2019-02-17T10:33:43.973Z,8.17
2019-02-17T10:34:43.955Z,8.23
2019-02-17T10:35:43.940Z,8.23
2019-02-17T10:36:43.982Z,8.28
2019-02-17T10:37:43.915Z,8.32
2019-02-17T10:38:43.908Z,8.42
2019-02-17T10:39:43.899Z,8.47
2019-02-17T10:40:43.888Z,8.47
2019-02-17T10:41:43.890Z,8.47
2019-02-17T10:42:43.906Z,8.50
2019-02-17T10:43:43.863Z,8.70
2019-02-17T10:44:43.845Z,8.77
2019-02-17T10:45:43.829Z,8.62
2019-02-17T10:46:43.824Z,8.80
2019-02-17T10:47:43.818Z,8.78
2019-02-17T10:48:43.840Z,8.78
2019-02-17T10:49:43.796Z,8.81
2019-02-17T10:50:43.785Z,8.86
2019-02-17T10:51:43.768Z,8.90
2019-02-17T10:52:43.769Z,8.95
2019-02-17T10:53:43.742Z,8.99
2019-02-17T10:54:43.773Z,8.99
2019-02-17T10:55:43.735Z,9.06
2019-02-17T10:56:43.710Z,9.04
2019-02-17T10:57:43.723Z,9.09
2019-02-17T10:58:43.723Z,9.15
2019-02-17T10:59:43.695Z,9.22
2019-02-17T11:00:43.702Z,9.11
2019-02-17T11:01:43.657Z,9.14
2019-02-17T11:02:47.060Z,9.14
2019-02-17T11:03:43.644Z,9.22
2019-02-17T11:04:43.639Z,9.14
2019-02-17T11:05:43.625Z,9.27
2019-02-17T11:06:43.602Z,9.18
2019-02-17T11:07:43.593Z,9.26
2019-02-17T11:08:43.616Z,9.18
2019-02-17T11:09:43.578Z,9.24
2019-02-17T11:10:43.566Z,9.29
2019-02-17T11:11:43.542Z,9.29
2019-02-17T11:12:43.640Z,9.42
2019-02-17T11:13:43.530Z,9.44
2019-02-17T11:14:43.517Z,9.41
2019-02-17T11:15:43.502Z,9.48
2019-02-17T11:16:43.493Z,9.50
2019-02-17T11:17:43.516Z,9.54
2019-02-17T11:18:43.468Z,9.57
2019-02-17T11:19:43.456Z,9.65
2019-02-17T11:20:43.446Z,9.69
2019-02-17T11:21:43.435Z,9.73
2019-02-17T11:22:43.424Z,9.69
2019-02-17T11:23:43.441Z,9.81
2019-02-17T11:24:43.412Z,9.83
2019-02-17T11:25:43.498Z,9.93
2019-02-17T11:26:43.382Z,9.87
2019-02-17T11:27:43.375Z,9.96
2019-02-17T11:28:43.385Z,9.98
2019-02-17T11:29:43.399Z,10.05
2019-02-17T11:30:43.343Z,9.99
2019-02-17T11:31:43.373Z,10.03
2019-02-17T11:32:43.339Z,10.09
2019-02-17T11:33:43.307Z,10.17
2019-02-17T11:34:43.298Z,10.17
2019-02-17T11:35:43.315Z,10.26
2019-02-17T11:36:43.306Z,10.26
2019-02-17T11:37:45.076Z,10.27
2019-02-17T11:38:43.249Z,10.41
2019-02-17T11:39:43.272Z,10.34
2019-02-17T11:40:43.226Z,10.30
2019-02-17T11:41:43.221Z,10.49
2019-02-17T11:42:43.203Z,10.52
2019-02-17T11:43:43.227Z,10.48
2019-02-17T11:44:43.186Z,10.49
2019-02-17T11:45:43.181Z,10.67
2019-02-17T11:46:43.163Z,10.68
2019-02-17T11:47:43.162Z,10.76
2019-02-17T11:48:43.163Z,10.76
2019-02-17T11:49:43.130Z,10.73
2019-02-17T11:50:43.221Z,10.78
2019-02-17T11:51:43.122Z,10.73
2019-02-17T11:52:43.096Z,10.83
2019-02-17T11:53:43.093Z,10.82
2019-02-17T11:54:43.075Z,10.94
2019-02-17T11:55:43.086Z,10.95
2019-02-17T11:56:43.081Z,11.01
2019-02-17T11:57:43.040Z,10.95
2019-02-17T11:58:43.027Z,11.01
2019-02-17T11:59:43.048Z,11.03
2019-02-17T12:00:43.021Z,11.04
2019-02-17T12:01:43.000Z,10.93
2019-02-17T12:02:42.984Z,10.98
2019-02-17T12:03:42.980Z,11.11
2019-02-17T12:04:42.983Z,11.20
2019-02-17T12:05:42.953Z,11.16
2019-02-17T12:06:42.954Z,11.20
2019-02-17T12:07:42.931Z,11.27
2019-02-17T12:08:42.926Z,11.31
2019-02-17T12:09:43.138Z,11.33
2019-02-17T12:10:42.905Z,11.31
2019-02-17T12:11:42.926Z,11.34
2019-02-17T12:12:42.898Z,11.48
2019-02-17T12:13:42.879Z,11.46
2019-02-17T12:14:42.865Z,11.59
2019-02-17T12:15:42.870Z,11.62
2019-02-17T12:16:42.867Z,11.56
2019-02-17T12:17:42.835Z,11.52
2019-02-17T12:18:42.812Z,11.59
2019-02-17T12:19:43.096Z,11.52
2019-02-17T12:20:42.792Z,11.54
2019-02-17T12:21:42.777Z,11.56
2019-02-17T12:22:42.778Z,11.59
2019-02-17T12:23:42.773Z,11.64
2019-02-17T12:24:42.830Z,11.71
2019-02-17T12:25:42.770Z,11.66
2019-02-17T12:26:42.791Z,11.73
2019-02-17T12:27:42.722Z,11.73
2019-02-17T12:28:42.696Z,11.74
2019-02-17T12:29:42.734Z,11.77
2019-02-17T12:30:42.716Z,11.73
2019-02-17T12:31:42.671Z,11.87
2019-02-17T12:32:42.694Z,11.89
2019-02-17T12:33:42.655Z,11.91
2019-02-17T12:34:42.636Z,11.88
2019-02-17T12:35:42.659Z,11.97
2019-02-17T12:36:42.613Z,12.00
2019-02-17T12:37:42.631Z,12.03
2019-02-17T12:38:42.594Z,12.15
2019-02-17T12:39:42.584Z,12.14
2019-02-17T12:40:42.600Z,12.11
2019-02-17T12:41:42.560Z,12.15
2019-02-17T12:42:42.598Z,12.29
2019-02-17T12:43:42.540Z,12.25
2019-02-17T12:44:42.526Z,12.29
2019-02-17T12:45:42.515Z,12.28
2019-02-17T12:46:42.502Z,12.25
2019-02-17T12:47:42.493Z,12.35
2019-02-17T12:48:42.524Z,12.32
2019-02-17T12:49:42.489Z,12.38
2019-02-17T12:50:42.472Z,12.33
2019-02-17T12:51:42.466Z,12.46
2019-02-17T12:52:47.300Z,12.46
2019-02-17T12:53:43.433Z,12.50
2019-02-17T12:54:42.446Z,12.48
2019-02-17T12:55:42.405Z,12.50
2019-02-17T12:56:42.419Z,12.55
2019-02-17T12:57:42.393Z,12.58
2019-02-17T12:58:42.381Z,12.58
2019-02-17T12:59:42.387Z,12.68
2019-02-17T13:00:42.353Z,12.68
2019-02-17T13:01:42.363Z,12.65
2019-02-17T13:02:42.335Z,12.66
2019-02-17T13:03:42.339Z,12.68
2019-02-17T13:04:42.316Z,12.71
2019-02-17T13:05:42.301Z,12.68
2019-02-17T13:06:42.329Z,12.71
2019-02-17T13:07:42.943Z,12.73
2019-02-17T13:08:42.276Z,12.77
2019-02-17T13:09:42.251Z,12.71
2019-02-17T13:10:42.262Z,12.76
2019-02-17T13:11:42.243Z,12.83
2019-02-17T13:12:42.242Z,12.79
2019-02-17T13:13:42.216Z,12.79
2019-02-17T13:14:42.207Z,12.81